DNAA/ABV METAR and TAF weather

Enter ICAO airport designator
Station Type Date Time Source
DNAA METAR 2018/12/12 23:00 UTC NOAA

DNAA 122300Z 09003KT CAVOK 22/14 Q1017 NOSIG


Station Type Date Time Source
DNAA Decoded METAR 2018/12/12 23:00 UTC NOAA

Station name not available
Dec 12, 2018 - 06:00 PM EST / 2018.12.12 2300 UTC
Wind: from the E (090 degrees) at 3 MPH (3 KT):0
Visibility: greater than 7 mile(s):0
Temperature: 71 F (22 C)
Dew Point: 57 F (14 C)
Relative Humidity: 60%
Pressure (altimeter): 30.03 in. Hg (1017 hPa)
ob: DNAA 122300Z 09003KT CAVOK 22/14 Q1017 NOSIG
cycle: 23

Station Type Date Time Source
DNAA TAF 2018/12/12 18:24 UTC NOAA

TAF DNAA 121530Z 1218/1324 28010KT CAVOK PROB30
TEMPO 1303/1308 07004KT 5000 HZ


Example: see airport list